Aspen, Colorado
Current Conditions -  °F | °C
As of 10:53 PM on Saturday 25 Oct 2014 (Local Time) from KASE Reporting Station
Clear Clear  
Wind Chill: 38°   Ceiling: Unl
Heat Index: 43°   Visibility: 10mi
Dew Point: 28°   Wind: 8mph
Humidity: 56%   Direction: 210°SSW
Pressure: 30.24"   Gusts: NA
Location:  39.19°N, 106.81°W
Report Text: KASE 260453Z AUTO 21007KT 10SM CLR 06/M02 A3024 RMK AO2 SLP159 T00611022
Loading
Personal Weather Stations






























Interactive Weather Map New forecast layout! Learn more

10-Day Weather Forecast

Advertisements
Track Severe Weather on mobile